Detall de PIREP

Printer-friendly versionPDF version

[2012/01/08 09:34:00]
Flight IATA:CT1005
Pilot Number:042
Company ICAO:CAT
Aircraft Type:B738/F
PAX:100
Departing Airport: EGKK
Destination Airport: EIDW
Alternate Airport:EINN
Online: VATSIM
Route:KENET UN14 PEMOB UM17 VATRY
Flight Level:F300
No Slew and time accel
No pause
Crash detect
Detect pilot in Cockpit between each 30 and 45 minutes
09:34 Zero fuel Weight: 91660 Lbs, Fuel Weight: 46051 Lbs
09:34 VATSIM:EGKK 080850Z 30008KT 9999 BKN032 08/03 Q1027
09:34 VATSIM:EIDW 080900Z 25015KT 8000 BKN003 BKN007 09/09 Q1026 BECMG 9999 BKN007
09:34 VOICE CATALONIAN/EU TOUR
09:45 Parking Brakes off
09:52 Take-off
09:52 Take off Weight: 137095 Lbs
09:52 Wind: 304º @ 007 Knots Heading: 259º
09:52 POS N51º 08´ 51´´ W000º 11´ 34´´
09:52 Gear Up: 173 Knots
09:52 Flaps:4 at 173 Knots
09:53 Flaps:3 at 170 Knots
09:53 Flaps:2 at 176 Knots
09:54 Flaps:1 at 217 Knots
09:54 Flaps:0 at 239 Knots
10:07 Wind:336º@057 Knots Heading: 300º Ground Speed: 382 Knots Altitude 29288 ft
10:07 TOC
10:07 Fuel Weight: 42425 Lb
10:22 Wind:333º@045 Knots Heading: 286º Ground Speed: 399 Knots Altitude 30433 ft
10:25 TOD
10:25 Fuel Weight: 40612 Lb
10:37 Wind:306º@033 Knots Heading: 338º Ground Speed: 281 Knots Altitude 12942 ft
10:40 Flaps:1 at 218 Knots
10:44 Flaps:2 at 196 Knots
10:48 Flaps:3 at 182 Knots
10:49 Flaps:4 at 158 Knots
10:50 Gear Down: 156 Knots
10:50 Flaps:5 at 156 Knots
10:50 Flaps:6 at 148 Knots
10:50 Flaps:7 at 142 Knots
10:50 Flaps:8 at 136 Knots
10:52 Wind:257º@014 Knots Heading: 272º Ground Speed: 124 Knots Altitude 1732 ft
10:54 TouchDown:Rate -358 ft/min Speed: 119 Knots
10:54 VATSIM:EIDW 081030Z 25014KT 9999 FEW004 BKN007 BKN012 10/10 Q1027 NOSIG
10:54 Land
10:54 Wind:258º@014 Knots
10:54 Heading: 273º
10:54 Flight Duration: 01:02
10:54 Landing Weight: 130875 Lbs
10:54 POS N53º 25´ 16´´ W006º 16´ 16´´
11:02 Parking brakes on
11:02 Block to Block Duration: 01:17
11:02 Final Fuel: 38642 Lbls
11:02 Spent Fuel: 7409 Lbls
11:02 Flight Length: 266 NM
11:02 TOD Land Length: 75 NM

Exportar CSV

Powered by Drupal - Modified by Danger4k